createdAt,value
2022-10-08T00:00:55.127Z,77.07
2022-10-08T00:02:56.694Z,77.29
2022-10-08T00:04:58.135Z,77.81
2022-10-08T00:06:59.645Z,78.00
2022-10-08T00:09:03.846Z,77.99
2022-10-08T00:11:09.033Z,76.92
2022-10-08T00:13:10.484Z,76.77
2022-10-08T00:15:13.757Z,77.70
2022-10-08T00:17:15.298Z,77.57
2022-10-08T00:19:16.815Z,77.62
2022-10-08T00:21:24.045Z,77.65
2022-10-08T00:23:25.851Z,77.22
2022-10-08T00:25:27.686Z,77.49
2022-10-08T00:27:29.332Z,77.38
2022-10-08T00:29:31.010Z,77.89
2022-10-08T00:31:35.392Z,78.03
2022-10-08T00:33:37.513Z,78.74
2022-10-08T00:35:40.042Z,77.95
2022-10-08T00:37:41.910Z,78.43
2022-10-08T00:39:43.364Z,78.30
2022-10-08T00:41:48.779Z,78.22
2022-10-08T00:43:55.744Z,78.27
2022-10-08T00:45:57.328Z,78.60
2022-10-08T00:47:58.835Z,79.35
2022-10-08T00:50:04.927Z,79.76
2022-10-08T00:52:06.523Z,79.29
2022-10-08T00:54:08.076Z,79.42
2022-10-08T00:56:09.550Z,79.03
2022-10-08T00:58:17.701Z,79.06
2022-10-08T01:00:23.611Z,78.69
2022-10-08T01:02:25.060Z,79.31
2022-10-08T01:04:26.973Z,79.96
2022-10-08T01:06:31.739Z,79.68
2022-10-08T01:08:59.766Z,79.07
2022-10-08T01:11:16.154Z,79.57
2022-10-08T01:13:24.392Z,78.38
2022-10-08T01:15:34.389Z,77.65
2022-10-08T01:17:49.783Z,77.58
2022-10-08T01:20:25.258Z,78.23
2022-10-08T01:23:03.326Z,78.68
2022-10-08T01:25:32.654Z,79.76
2022-10-08T01:27:43.459Z,79.43
2022-10-08T01:29:48.914Z,80.48
2022-10-08T01:31:58.498Z,80.27
2022-10-08T01:34:06.470Z,80.46
2022-10-08T01:36:10.952Z,80.40
2022-10-08T01:38:16.638Z,80.31
2022-10-08T01:40:21.450Z,80.51
2022-10-08T01:42:26.062Z,80.82
2022-10-08T01:44:39.525Z,80.67
2022-10-08T01:46:43.890Z,80.56
2022-10-08T01:48:48.039Z,80.62
2022-10-08T01:51:02.999Z,80.93
2022-10-08T01:53:11.511Z,80.59
2022-10-08T01:55:17.809Z,80.37
2022-10-08T01:57:19.371Z,81.14
2022-10-08T01:59:51.456Z,80.62
2022-10-08T02:01:59.135Z,80.74
2022-10-08T02:04:19.617Z,80.65
2022-10-08T02:06:21.169Z,80.92
2022-10-08T02:08:23.017Z,81.27
2022-10-08T02:10:26.192Z,80.63
2022-10-08T02:12:27.626Z,80.79
2022-10-08T02:14:31.670Z,80.67
2022-10-08T02:16:35.327Z,81.03
2022-10-08T02:18:42.609Z,81.39
2022-10-08T02:21:17.676Z,81.17
2022-10-08T02:23:47.042Z,80.99
2022-10-08T02:26:33.278Z,81.00
2022-10-08T02:28:46.339Z,81.23
2022-10-08T02:30:53.378Z,81.53
2022-10-08T02:33:09.061Z,81.00
2022-10-08T02:35:18.286Z,81.32
2022-10-08T02:37:25.369Z,81.00
2022-10-08T02:39:29.651Z,81.00
2022-10-08T02:41:36.392Z,81.50
2022-10-08T02:43:45.025Z,81.67
2022-10-08T02:46:03.295Z,81.39
2022-10-08T02:48:12.067Z,81.85
2022-10-08T02:50:16.194Z,81.92
2022-10-08T02:52:20.146Z,81.85
2022-10-08T02:54:23.840Z,81.74
2022-10-08T02:56:40.343Z,81.86
2022-10-08T02:58:43.689Z,82.08
2022-10-08T03:01:04.398Z,81.81
2022-10-08T03:03:13.318Z,81.67
2022-10-08T03:05:18.612Z,81.82
2022-10-08T03:07:22.648Z,82.09
2022-10-08T03:09:28.532Z,82.10
2022-10-08T03:11:30.840Z,82.29
2022-10-08T03:13:36.953Z,82.21
2022-10-08T03:15:41.179Z,82.46
2022-10-08T03:17:46.384Z,82.03
2022-10-08T03:19:47.848Z,82.11
2022-10-08T03:21:53.374Z,82.16
2022-10-08T03:23:54.857Z,82.28
2022-10-08T03:25:56.297Z,82.66
2022-10-08T03:27:57.753Z,82.51
2022-10-08T03:29:59.177Z,81.88
2022-10-08T03:32:00.623Z,82.09
2022-10-08T03:34:02.069Z,82.05
2022-10-08T03:36:03.823Z,82.46
2022-10-08T03:38:05.238Z,82.20
2022-10-08T03:40:07.430Z,82.67
2022-10-08T03:42:09.616Z,82.97
2022-10-08T03:44:12.368Z,83.24
2022-10-08T03:46:15.525Z,83.25
2022-10-08T03:48:17.036Z,83.57
2022-10-08T03:50:22.229Z,83.52
2022-10-08T03:52:23.705Z,83.58
2022-10-08T03:54:25.229Z,83.63
2022-10-08T03:56:26.768Z,83.90
2022-10-08T03:58:28.907Z,83.91
2022-10-08T04:00:30.437Z,83.78
2022-10-08T04:02:32.585Z,83.88
2022-10-08T04:04:34.196Z,83.55
2022-10-08T04:06:35.648Z,83.82
2022-10-08T04:08:37.448Z,84.15
2022-10-08T04:10:38.928Z,84.00
2022-10-08T04:12:40.442Z,84.37
2022-10-08T04:14:41.904Z,83.94
2022-10-08T04:16:43.405Z,83.59
2022-10-08T04:18:45.690Z,84.13
2022-10-08T04:20:47.192Z,83.90
2022-10-08T04:22:49.035Z,84.14
2022-10-08T04:24:50.795Z,84.56
2022-10-08T04:26:52.243Z,84.40
2022-10-08T04:28:54.563Z,85.14
2022-10-08T04:31:03.368Z,85.69
2022-10-08T04:33:04.870Z,86.06
2022-10-08T04:35:07.054Z,86.35
2022-10-08T04:37:08.493Z,86.31
2022-10-08T04:39:09.960Z,86.66
2022-10-08T04:41:13.970Z,86.91
2022-10-08T04:43:15.740Z,87.36
2022-10-08T04:45:17.265Z,87.41
2022-10-08T04:47:18.664Z,87.52
2022-10-08T04:49:20.077Z,87.54
2022-10-08T04:51:23.905Z,87.60
2022-10-08T04:53:28.124Z,87.79
2022-10-08T04:55:29.595Z,88.18
2022-10-08T04:57:31.564Z,87.99
2022-10-08T04:59:33.032Z,88.02
2022-10-08T05:01:34.872Z,87.94
2022-10-08T05:03:42.840Z,88.32
2022-10-08T05:05:45.923Z,88.35
2022-10-08T05:07:47.483Z,88.34
2022-10-08T05:09:48.969Z,88.40
2022-10-08T05:11:51.483Z,88.21
2022-10-08T05:13:54.599Z,88.07
2022-10-08T05:15:56.141Z,88.29
2022-10-08T05:17:57.659Z,88.01
2022-10-08T05:19:59.060Z,88.56
2022-10-08T05:22:00.488Z,88.37
2022-10-08T05:24:05.304Z,88.46
2022-10-08T05:26:35.828Z,88.37
2022-10-08T05:28:44.780Z,88.21
2022-10-08T05:30:46.350Z,88.40
2022-10-08T05:32:48.083Z,88.08
2022-10-08T05:34:49.804Z,88.05
2022-10-08T05:36:51.345Z,88.17
2022-10-08T05:38:53.646Z,88.42
2022-10-08T05:40:55.123Z,88.41
2022-10-08T05:42:57.109Z,88.43
2022-10-08T05:44:58.584Z,88.37
2022-10-08T05:47:00.068Z,88.53
2022-10-08T05:49:03.774Z,88.71
2022-10-08T05:51:07.584Z,89.07
2022-10-08T05:53:09.391Z,88.86
2022-10-08T05:55:10.927Z,88.81
2022-10-08T05:57:12.736Z,88.88
2022-10-08T05:59:21.811Z,89.18
2022-10-08T06:01:26.237Z,89.06
2022-10-08T06:03:28.690Z,89.07
2022-10-08T06:05:30.154Z,89.26
2022-10-08T06:07:31.600Z,89.45
2022-10-08T06:09:33.021Z,89.29
2022-10-08T06:11:36.562Z,89.29
2022-10-08T06:13:38.189Z,89.54
2022-10-08T06:15:39.613Z,89.54
2022-10-08T06:17:41.013Z,89.63
2022-10-08T06:19:42.439Z,89.67
2022-10-08T06:21:43.907Z,89.72
2022-10-08T06:23:47.654Z,89.62
2022-10-08T06:25:49.085Z,89.96
2022-10-08T06:27:50.500Z,90.04
2022-10-08T06:29:51.892Z,90.17
2022-10-08T06:31:53.511Z,90.28
2022-10-08T06:33:58.949Z,90.20
2022-10-08T06:36:27.624Z,90.54
2022-10-08T06:38:29.126Z,90.11
2022-10-08T06:40:39.039Z,90.28
2022-10-08T06:42:40.561Z,90.46
2022-10-08T06:44:42.236Z,90.55
2022-10-08T06:46:43.721Z,90.80
2022-10-08T06:48:45.859Z,90.71
2022-10-08T06:50:47.325Z,90.62
2022-10-08T06:52:49.249Z,90.75
2022-10-08T06:54:51.111Z,90.76
2022-10-08T06:56:52.622Z,90.93
2022-10-08T06:58:54.997Z,90.68
2022-10-08T07:01:12.730Z,91.06
2022-10-08T07:03:14.217Z,90.80
2022-10-08T07:05:15.748Z,90.69
2022-10-08T07:07:17.244Z,90.95
2022-10-08T07:09:18.669Z,90.92
2022-10-08T07:11:21.135Z,91.35
2022-10-08T07:13:22.584Z,91.41
2022-10-08T07:15:24.002Z,91.26
2022-10-08T07:17:28.398Z,91.30
2022-10-08T07:19:29.786Z,90.95
2022-10-08T07:21:31.455Z,90.78
2022-10-08T07:23:32.913Z,90.61
2022-10-08T07:25:34.392Z,90.41
2022-10-08T07:27:35.871Z,90.13
2022-10-08T07:29:37.289Z,90.04
2022-10-08T07:31:39.683Z,89.84
2022-10-08T07:33:41.458Z,89.69
2022-10-08T07:35:43.583Z,89.67
2022-10-08T07:37:45.001Z,89.65
2022-10-08T07:39:46.437Z,89.01
2022-10-08T07:41:49.567Z,89.30
2022-10-08T07:43:55.648Z,89.10
2022-10-08T07:45:57.174Z,88.90
2022-10-08T07:47:59.241Z,88.64
2022-10-08T07:50:00.653Z,88.10
2022-10-08T07:52:02.065Z,88.04
2022-10-08T07:54:05.869Z,87.76
2022-10-08T07:56:08.605Z,87.79
2022-10-08T07:58:10.407Z,87.71
2022-10-08T08:00:12.240Z,87.44
2022-10-08T08:02:13.685Z,87.00
2022-10-08T08:04:15.372Z,86.79
2022-10-08T08:06:16.780Z,86.50
2022-10-08T08:08:18.196Z,86.37
2022-10-08T08:10:19.681Z,86.63
2022-10-08T08:12:21.149Z,86.97
2022-10-08T08:14:22.725Z,87.30
2022-10-08T08:16:26.789Z,86.63
2022-10-08T08:18:29.801Z,86.61
2022-10-08T08:20:31.203Z,86.06
2022-10-08T08:22:32.619Z,86.29
2022-10-08T08:24:34.186Z,85.60
2022-10-08T08:26:37.999Z,85.36
2022-10-08T08:28:39.930Z,85.25
2022-10-08T08:30:41.371Z,84.96
2022-10-08T08:32:42.780Z,83.75
2022-10-08T08:34:44.241Z,83.74
2022-10-08T08:36:49.105Z,83.46
2022-10-08T08:38:50.544Z,82.74
2022-10-08T08:40:55.302Z,81.98
2022-10-08T08:42:57.171Z,81.79
2022-10-08T08:45:45.757Z,82.33
2022-10-08T08:47:57.617Z,81.67
2022-10-08T08:50:29.792Z,81.29
2022-10-08T08:52:38.528Z,80.49
2022-10-08T08:54:40.037Z,80.98
2022-10-08T08:56:41.999Z,80.43
2022-10-08T08:58:58.517Z,80.36
2022-10-08T09:01:29.650Z,79.44
2022-10-08T09:03:51.275Z,79.45
2022-10-08T09:05:57.190Z,78.88
2022-10-08T09:08:19.040Z,79.15
2022-10-08T09:10:26.405Z,78.48
2022-10-08T09:12:47.938Z,76.80
2022-10-08T09:14:54.418Z,76.84
2022-10-08T09:16:57.403Z,76.31
2022-10-08T09:18:58.869Z,76.70
2022-10-08T09:21:00.325Z,75.52
2022-10-08T09:23:01.963Z,75.11
2022-10-08T09:25:10.913Z,75.66
2022-10-08T09:27:14.905Z,77.59
2022-10-08T09:29:34.033Z,80.45
2022-10-08T09:31:47.731Z,80.80
2022-10-08T09:33:58.285Z,82.08
2022-10-08T09:36:00.152Z,83.55
2022-10-08T09:38:05.629Z,83.84
2022-10-08T09:40:13.747Z,83.45
2022-10-08T09:42:18.086Z,84.35
2022-10-08T09:44:22.491Z,85.34
2022-10-08T09:46:33.098Z,85.98
2022-10-08T09:48:34.590Z,86.62
2022-10-08T09:50:37.544Z,87.42
2022-10-08T09:52:41.226Z,87.64
2022-10-08T09:54:48.830Z,87.71
2022-10-08T09:56:54.377Z,86.72
2022-10-08T09:59:00.845Z,86.36
2022-10-08T10:01:25.043Z,85.41
2022-10-08T10:03:27.449Z,86.48
2022-10-08T10:05:32.154Z,86.46
2022-10-08T10:07:43.540Z,86.43
2022-10-08T10:09:50.675Z,86.83
2022-10-08T10:12:13.879Z,86.97
2022-10-08T10:14:29.151Z,86.95
2022-10-08T10:16:39.469Z,87.08
2022-10-08T10:18:53.019Z,85.90
2022-10-08T10:20:59.445Z,86.01
2022-10-08T10:23:12.055Z,85.24
2022-10-08T10:25:27.251Z,81.91
2022-10-08T10:27:37.947Z,81.52
2022-10-08T10:30:00.906Z,81.02
2022-10-08T10:32:20.950Z,79.73
2022-10-08T10:34:28.870Z,79.78
2022-10-08T10:36:35.163Z,80.15
2022-10-08T10:38:45.315Z,80.40
2022-10-08T10:41:08.189Z,79.02
2022-10-08T10:43:38.095Z,79.85
2022-10-08T10:45:42.496Z,80.20
2022-10-08T10:47:44.060Z,81.16
2022-10-08T10:49:45.545Z,81.66
2022-10-08T10:52:22.024Z,82.05
2022-10-08T10:54:47.581Z,83.56
2022-10-08T10:56:58.170Z,83.29
2022-10-08T10:59:05.417Z,80.14
2022-10-08T11:01:25.430Z,78.11
2022-10-08T11:04:04.010Z,74.58
2022-10-08T11:06:26.932Z,71.36
2022-10-08T11:08:37.989Z,69.53
2022-10-08T11:10:42.406Z,67.76
2022-10-08T11:12:56.535Z,64.69
2022-10-08T11:15:35.342Z,64.11
2022-10-08T11:17:48.779Z,64.54
2022-10-08T11:19:59.415Z,62.30
2022-10-08T11:22:10.783Z,61.66
2022-10-08T11:24:49.733Z,59.86
2022-10-08T11:27:14.749Z,59.59
2022-10-08T11:29:40.560Z,58.48
2022-10-08T11:31:52.513Z,59.15
2022-10-08T11:33:55.975Z,58.38
2022-10-08T11:36:06.166Z,60.07
2022-10-08T11:38:19.089Z,60.20
2022-10-08T11:40:26.983Z,61.76
2022-10-08T11:42:31.309Z,63.02
2022-10-08T11:44:33.236Z,63.72
2022-10-08T11:46:36.681Z,65.33
2022-10-08T11:48:38.370Z,65.36
2022-10-08T11:50:40.930Z,64.97
2022-10-08T11:52:42.407Z,64.82
2022-10-08T11:54:55.128Z,64.36
2022-10-08T11:58:06.683Z,62.78
2022-10-08T12:00:07.785Z,63.39
2022-10-08T12:02:26.744Z,63.82
2022-10-08T12:04:30.389Z,65.31
2022-10-08T12:06:34.611Z,64.73
2022-10-08T12:08:57.715Z,64.87
2022-10-08T12:11:40.542Z,64.39
2022-10-08T12:13:41.981Z,65.30
2022-10-08T12:15:44.234Z,65.15
2022-10-08T12:17:52.712Z,64.46
2022-10-08T12:20:04.263Z,62.02
2022-10-08T12:22:14.440Z,61.33
2022-10-08T12:24:37.823Z,62.68
2022-10-08T12:27:20.630Z,63.75
2022-10-08T12:29:56.647Z,61.01
2022-10-08T12:32:02.827Z,59.04
2022-10-08T12:34:16.601Z,58.65
2022-10-08T12:36:34.405Z,57.85
2022-10-08T12:38:51.025Z,57.70
2022-10-08T12:41:14.636Z,59.50
2022-10-08T12:43:24.926Z,58.52
2022-10-08T12:45:34.280Z,59.34
2022-10-08T12:47:41.642Z,59.95
2022-10-08T12:50:05.972Z,61.03
2022-10-08T12:52:10.657Z,60.89
2022-10-08T12:54:31.645Z,60.63
2022-10-08T12:56:33.178Z,61.39
2022-10-08T12:58:37.417Z,62.37
2022-10-08T13:00:39.156Z,63.30
2022-10-08T13:02:42.243Z,64.24
2022-10-08T13:04:46.134Z,64.20
2022-10-08T13:06:49.750Z,64.72
2022-10-08T13:08:51.157Z,63.29
2022-10-08T13:10:52.624Z,62.43
2022-10-08T13:13:05.736Z,63.66
2022-10-08T13:15:21.334Z,62.22
2022-10-08T13:17:49.519Z,61.89
2022-10-08T13:20:21.912Z,62.49
2022-10-08T13:22:25.214Z,60.21
2022-10-08T13:24:30.357Z,60.42
2022-10-08T13:26:48.202Z,59.21
2022-10-08T13:29:00.314Z,59.58
2022-10-08T13:31:21.820Z,63.22
2022-10-08T13:33:27.624Z,65.39
2022-10-08T13:35:29.278Z,66.18
2022-10-08T13:37:33.683Z,66.81
2022-10-08T13:39:38.756Z,67.64
2022-10-08T13:41:40.164Z,68.03
2022-10-08T13:43:41.595Z,67.59
2022-10-08T13:45:43.049Z,67.34
2022-10-08T13:47:45.387Z,65.84
2022-10-08T13:49:47.324Z,66.45
2022-10-08T13:51:50.175Z,65.60
2022-10-08T13:53:56.230Z,65.03
2022-10-08T13:55:58.422Z,65.08
2022-10-08T13:58:02.780Z,65.79
2022-10-08T14:00:05.192Z,65.99
2022-10-08T14:02:07.671Z,65.14
2022-10-08T14:04:09.221Z,64.85
2022-10-08T14:06:10.703Z,63.90
2022-10-08T14:08:27.377Z,64.46
2022-10-08T14:10:28.933Z,64.25
2022-10-08T14:12:32.639Z,64.70
2022-10-08T14:14:34.088Z,64.16
2022-10-08T14:16:35.552Z,63.00
2022-10-08T14:18:37.021Z,63.34
2022-10-08T14:20:39.214Z,63.05
2022-10-08T14:22:40.978Z,61.91
2022-10-08T14:24:42.445Z,62.41
2022-10-08T14:26:43.876Z,63.17
2022-10-08T14:28:45.360Z,63.85
2022-10-08T14:30:46.861Z,64.47
2022-10-08T14:32:48.296Z,64.26
2022-10-08T14:34:49.735Z,64.62
2022-10-08T14:36:55.407Z,63.28
2022-10-08T14:38:56.879Z,59.28
2022-10-08T14:40:58.416Z,56.89
2022-10-08T14:42:59.869Z,55.81
2022-10-08T14:45:01.430Z,54.43
2022-10-08T14:47:02.838Z,55.49
2022-10-08T14:49:05.306Z,55.56
2022-10-08T14:51:06.765Z,54.89
2022-10-08T14:53:08.192Z,55.49
2022-10-08T14:55:10.241Z,56.24
2022-10-08T14:57:11.647Z,56.40
2022-10-08T14:59:13.427Z,56.71
2022-10-08T15:01:14.923Z,57.23
2022-10-08T15:03:16.350Z,57.42
2022-10-08T15:05:17.756Z,57.99
2022-10-08T15:07:19.162Z,58.06
2022-10-08T15:09:20.654Z,58.27
2022-10-08T15:11:22.105Z,58.15
2022-10-08T15:13:23.702Z,58.43
2022-10-08T15:15:25.171Z,58.07
2022-10-08T15:17:26.700Z,59.59
2022-10-08T15:19:28.411Z,59.39
2022-10-08T15:21:29.816Z,59.55
2022-10-08T15:23:31.302Z,58.43
2022-10-08T15:25:33.854Z,58.79
2022-10-08T15:27:35.288Z,59.46
2022-10-08T15:29:36.720Z,60.05
2022-10-08T15:31:38.239Z,61.01
2022-10-08T15:33:41.813Z,61.52
2022-10-08T15:35:43.348Z,61.84
2022-10-08T15:37:45.196Z,62.50
2022-10-08T15:39:46.603Z,63.05
2022-10-08T15:41:51.232Z,63.02
2022-10-08T15:43:53.101Z,63.54
2022-10-08T15:45:54.567Z,63.73
2022-10-08T15:47:56.052Z,63.70
2022-10-08T15:49:57.535Z,63.46
2022-10-08T15:51:59.066Z,64.06
2022-10-08T15:54:01.667Z,63.45
2022-10-08T15:56:04.931Z,64.04
2022-10-08T15:58:06.731Z,63.56
2022-10-08T16:00:08.784Z,63.93
2022-10-08T16:02:17.190Z,64.26
2022-10-08T16:04:19.482Z,64.69
2022-10-08T16:06:23.560Z,64.97
2022-10-08T16:08:24.977Z,65.70
2022-10-08T16:10:26.385Z,65.62
2022-10-08T16:12:27.794Z,65.53
2022-10-08T16:14:29.244Z,66.25
2022-10-08T16:16:31.030Z,65.97
2022-10-08T16:18:32.488Z,65.90
2022-10-08T16:20:34.832Z,66.09
2022-10-08T16:22:36.267Z,66.37
2022-10-08T16:24:37.794Z,66.03
2022-10-08T16:26:39.956Z,66.48
2022-10-08T16:28:41.402Z,66.53
2022-10-08T16:30:42.957Z,66.98
2022-10-08T16:32:44.419Z,67.25
2022-10-08T16:34:53.306Z,67.47
2022-10-08T16:36:55.135Z,67.50
2022-10-08T16:38:57.632Z,68.05
2022-10-08T16:41:17.981Z,68.50
2022-10-08T16:43:19.387Z,68.93
2022-10-08T16:45:20.850Z,69.12
2022-10-08T16:47:22.284Z,69.56
2022-10-08T16:49:26.812Z,69.35
2022-10-08T16:51:34.466Z,69.66
2022-10-08T16:53:36.148Z,70.07
2022-10-08T16:55:38.667Z,70.32
2022-10-08T16:57:40.079Z,70.78
2022-10-08T16:59:41.490Z,70.62
2022-10-08T17:01:45.040Z,71.46
2022-10-08T17:03:46.898Z,71.63
2022-10-08T17:05:48.445Z,71.83
2022-10-08T17:07:49.941Z,71.34
2022-10-08T17:09:52.880Z,71.57
2022-10-08T17:11:54.420Z,71.60
2022-10-08T17:13:57.677Z,71.81
2022-10-08T17:16:04.505Z,71.83
2022-10-08T17:18:05.978Z,71.73
2022-10-08T17:20:08.027Z,71.97
2022-10-08T17:22:10.482Z,71.78
2022-10-08T17:24:12.732Z,71.98
2022-10-08T17:26:16.907Z,72.23
2022-10-08T17:28:18.364Z,72.26
2022-10-08T17:30:19.856Z,72.42
2022-10-08T17:32:21.583Z,72.53
2022-10-08T17:34:23.229Z,72.84
2022-10-08T17:36:29.978Z,72.79
2022-10-08T17:38:31.993Z,73.12
2022-10-08T17:40:33.397Z,73.02
2022-10-08T17:42:34.807Z,73.02
2022-10-08T17:44:36.217Z,73.54
2022-10-08T17:46:42.649Z,73.57
2022-10-08T17:48:44.223Z,73.76
2022-10-08T17:50:45.819Z,73.74
2022-10-08T17:52:47.523Z,74.07
2022-10-08T17:54:49.127Z,74.02
2022-10-08T17:56:50.588Z,74.12
2022-10-08T17:58:53.056Z,74.12
2022-10-08T18:01:07.116Z,74.82
2022-10-08T18:03:09.006Z,75.29
2022-10-08T18:05:10.480Z,75.31
2022-10-08T18:07:12.485Z,75.49
2022-10-08T18:09:20.136Z,75.57
2022-10-08T18:11:22.156Z,75.86
2022-10-08T18:13:23.610Z,75.87
2022-10-08T18:15:26.010Z,75.83
2022-10-08T18:17:27.494Z,76.05
2022-10-08T18:19:29.057Z,75.92
2022-10-08T18:21:30.700Z,76.17
2022-10-08T18:23:34.902Z,76.16
2022-10-08T18:25:36.355Z,76.22
2022-10-08T18:27:37.852Z,76.24
2022-10-08T18:29:39.273Z,76.10
2022-10-08T18:31:42.862Z,76.26
2022-10-08T18:33:46.250Z,76.36
2022-10-08T18:35:47.639Z,76.57
2022-10-08T18:37:49.380Z,76.87
2022-10-08T18:39:50.795Z,77.25
2022-10-08T18:41:52.267Z,77.38
2022-10-08T18:43:53.892Z,77.15
2022-10-08T18:45:55.452Z,77.47
2022-10-08T18:47:57.493Z,77.49
2022-10-08T18:49:59.016Z,77.73
2022-10-08T18:52:01.422Z,77.58
2022-10-08T18:54:02.977Z,77.65
2022-10-08T18:56:06.760Z,77.72
2022-10-08T18:58:08.202Z,77.91
2022-10-08T19:00:10.038Z,78.04
2022-10-08T19:02:11.551Z,77.85
2022-10-08T19:04:16.797Z,77.67
2022-10-08T19:06:20.915Z,78.01
2022-10-08T19:08:22.702Z,77.51
2022-10-08T19:10:24.394Z,77.04
2022-10-08T19:12:25.871Z,77.07
2022-10-08T19:14:28.845Z,77.26
2022-10-08T19:16:30.469Z,77.07
2022-10-08T19:18:32.129Z,77.29
2022-10-08T19:20:34.986Z,77.43
2022-10-08T19:22:36.411Z,77.23
2022-10-08T19:24:41.045Z,77.42
2022-10-08T19:26:43.454Z,76.91
2022-10-08T19:28:47.449Z,77.29
2022-10-08T19:30:49.036Z,77.34
2022-10-08T19:32:50.794Z,77.40
2022-10-08T19:34:52.311Z,77.88
2022-10-08T19:36:54.215Z,78.67
2022-10-08T19:39:26.276Z,79.21
2022-10-08T19:41:29.034Z,79.92
2022-10-08T19:43:30.425Z,80.11
2022-10-08T19:45:34.773Z,80.39
2022-10-08T19:47:36.182Z,80.49
2022-10-08T19:49:37.733Z,80.67
2022-10-08T19:51:39.681Z,80.79
2022-10-08T19:53:41.159Z,80.93
2022-10-08T19:55:42.577Z,80.96
2022-10-08T19:57:44.058Z,81.41
2022-10-08T19:59:45.612Z,81.48
2022-10-08T20:01:47.165Z,81.16
2022-10-08T20:03:48.690Z,81.83
2022-10-08T20:05:50.083Z,81.72
2022-10-08T20:07:51.729Z,81.90
2022-10-08T20:09:53.201Z,81.74
2022-10-08T20:11:55.133Z,81.77
2022-10-08T20:13:57.116Z,81.65
2022-10-08T20:16:06.474Z,81.93
2022-10-08T20:18:07.916Z,82.13
2022-10-08T20:20:31.622Z,81.70
2022-10-08T20:22:31.207Z,81.96
2022-10-08T20:24:32.707Z,81.87
2022-10-08T20:26:36.988Z,82.21
2022-10-08T20:28:38.676Z,81.27
2022-10-08T20:30:40.190Z,81.89
2022-10-08T20:32:41.746Z,81.48
2022-10-08T20:34:43.270Z,81.14
2022-10-08T20:36:48.494Z,80.81
2022-10-08T20:38:49.924Z,80.12
2022-10-08T20:40:55.217Z,80.46
2022-10-08T20:42:56.635Z,80.07
2022-10-08T20:44:58.421Z,80.12
2022-10-08T20:47:00.558Z,79.66
2022-10-08T20:49:02.415Z,79.68
2022-10-08T20:51:06.697Z,79.68
2022-10-08T20:53:09.994Z,79.63
2022-10-08T20:55:11.564Z,79.88
2022-10-08T20:57:13.024Z,79.77
2022-10-08T20:59:18.587Z,79.36
2022-10-08T21:01:24.522Z,78.61
2022-10-08T21:03:25.975Z,79.08
2022-10-08T21:05:27.611Z,78.96
2022-10-08T21:07:29.023Z,79.27
2022-10-08T21:09:30.510Z,79.66
2022-10-08T21:11:32.246Z,78.80
2022-10-08T21:13:34.565Z,79.17
2022-10-08T21:15:35.985Z,78.55
2022-10-08T21:17:37.406Z,78.22
2022-10-08T21:19:38.875Z,78.20
2022-10-08T21:21:40.560Z,78.80
2022-10-08T21:23:42.858Z,77.90
2022-10-08T21:25:44.279Z,79.53
2022-10-08T21:27:45.918Z,79.53
2022-10-08T21:29:47.383Z,79.51
2022-10-08T21:31:48.899Z,78.37
2022-10-08T21:33:52.263Z,78.25
2022-10-08T21:35:57.887Z,78.76
2022-10-08T21:37:59.328Z,79.07
2022-10-08T21:40:01.104Z,78.71
2022-10-08T21:42:02.520Z,78.14
2022-10-08T21:44:07.095Z,77.64
2022-10-08T21:46:10.928Z,77.37
2022-10-08T21:48:12.362Z,77.87
2022-10-08T21:50:13.844Z,77.63
2022-10-08T21:52:15.259Z,77.22
2022-10-08T21:54:17.343Z,78.02
2022-10-08T21:56:22.710Z,78.08
2022-10-08T21:58:26.111Z,77.89
2022-10-08T22:00:31.622Z,78.13
2022-10-08T22:02:33.241Z,78.44
2022-10-08T22:04:34.720Z,79.15
2022-10-08T22:06:39.580Z,78.74
2022-10-08T22:08:40.998Z,79.40
2022-10-08T22:10:43.160Z,79.47
2022-10-08T22:12:46.883Z,79.67
2022-10-08T22:14:48.989Z,79.21
2022-10-08T22:16:50.898Z,79.58
2022-10-08T22:18:52.686Z,79.89
2022-10-08T22:20:54.599Z,80.50
2022-10-08T22:22:55.994Z,81.36
2022-10-08T22:24:57.422Z,82.11
2022-10-08T22:26:58.889Z,80.91
2022-10-08T22:29:00.966Z,81.22
2022-10-08T22:31:04.589Z,82.32
2022-10-08T22:33:06.023Z,83.44
2022-10-08T22:35:08.170Z,84.37
2022-10-08T22:37:09.645Z,84.08
2022-10-08T22:39:11.725Z,83.88
2022-10-08T22:41:16.361Z,84.23
2022-10-08T22:43:17.770Z,85.09
2022-10-08T22:45:19.232Z,84.98
2022-10-08T22:47:20.666Z,84.73
2022-10-08T22:49:22.074Z,84.73
2022-10-08T22:51:23.633Z,84.33
2022-10-08T22:53:25.070Z,84.11
2022-10-08T22:55:27.323Z,84.18
2022-10-08T22:57:28.727Z,83.51
2022-10-08T22:59:30.509Z,84.18
2022-10-08T23:01:32.035Z,84.64
2022-10-08T23:03:34.068Z,84.44
2022-10-08T23:05:35.518Z,84.13
2022-10-08T23:07:36.917Z,84.48
2022-10-08T23:09:38.374Z,84.12
2022-10-08T23:11:39.830Z,83.96
2022-10-08T23:13:41.357Z,84.12
2022-10-08T23:15:42.767Z,84.70
2022-10-08T23:17:44.185Z,84.10
2022-10-08T23:19:45.584Z,84.82
2022-10-08T23:21:47.047Z,84.77
2022-10-08T23:23:48.985Z,85.15
2022-10-08T23:25:55.327Z,85.25
2022-10-08T23:27:56.772Z,84.96
2022-10-08T23:29:58.166Z,84.67
2022-10-08T23:31:59.629Z,83.91
2022-10-08T23:34:01.946Z,84.01
2022-10-08T23:36:07.209Z,84.34
2022-10-08T23:38:09.570Z,83.32
2022-10-08T23:40:10.983Z,83.10
2022-10-08T23:42:12.371Z,82.57
2022-10-08T23:44:13.910Z,83.21
2022-10-08T23:46:18.410Z,82.33
2022-10-08T23:48:19.852Z,82.38
2022-10-08T23:50:21.273Z,82.19
2022-10-08T23:52:22.692Z,81.77
2022-10-08T23:54:24.242Z,81.09
2022-10-08T23:56:25.653Z,81.13
2022-10-08T23:58:27.111Z,80.45
